Terminal Aerodrome Forecast
Issued by NWS Wilmington, OH

Current Version | Previous Version | Text Only | Print | Product List | Glossary Off
Versions: 1 2 3 4 5 6 7 8 9 10 11 12 13 14 15

000
FTUS41 KILN 202339
TAFILN
TAF
KILN 202339Z 2100/2124 VRB04KT P6SM SCT250
     FM210600 00000KT 5SM BR SKC
      TEMPO 2110/2113 1SM BR SCT002
     FM211400 VRB03KT P6SM FEW020
     FM211600 VRB03KT P6SM SCT040=

USA.gov is the U.S. government's official web portal to all federal, state and local government web resources and services.